Time;durP1;ratioP1;P1;durP2;ratioP2;P2;SDS_P1;SDS_P2;PMS_P1;PMS_P2;Temp;Humidity;BMP_temperature;BMP_pressure;BME280_temperature;BME280_humidity;BME280_pressure;Samples;Min_cycle;Max_cycle;Signal;HPM_P1;HPM_P2
2023/04/24 00:00:44;;;;;;;13.48;9.70;;;11.40;99.90;;;;;;5113714;28;20255;-72
2023/04/24 00:03:12;;;;;;;13.18;9.52;;;11.40;99.90;;;;;;5114095;28;20661;-71
2023/04/24 00:05:41;;;;;;;10.05;8.68;;;11.50;99.90;;;;;;5114437;28;20241;-72
2023/04/24 00:08:09;;;;;;;11.77;8.45;;;11.60;99.90;;;;;;5114425;28;20232;-72
2023/04/24 00:10:36;;;;;;;7.63;5.55;;;11.60;99.90;;;;;;5114374;28;20262;-73
2023/04/24 00:13:03;;;;;;;6.18;5.57;;;11.50;99.90;;;;;;5113672;28;20232;-72
2023/04/24 00:15:30;;;;;;;6.55;5.30;;;11.40;99.90;;;;;;5113663;28;20232;-72
2023/04/24 00:17:57;;;;;;;6.38;5.70;;;11.50;99.90;;;;;;5113613;28;20201;-72
2023/04/24 00:20:24;;;;;;;7.35;6.63;;;11.50;99.90;;;;;;5114057;28;20232;-72
2023/04/24 00:22:51;;;;;;;11.38;4.90;;;11.50;99.90;;;;;;5113394;28;20239;-72
2023/04/24 00:25:19;;;;;;;5.90;5.32;;;11.50;99.90;;;;;;5113831;28;20283;-72
2023/04/24 00:27:46;;;;;;;8.82;6.72;;;11.50;99.90;;;;;;5113125;28;20243;-72
2023/04/24 00:30:13;;;;;;;8.40;6.95;;;11.50;99.90;;;;;;5113619;28;20262;-72
2023/04/24 00:32:40;;;;;;;10.73;8.45;;;11.40;99.90;;;;;;5113751;28;20236;-72
2023/04/24 00:35:08;;;;;;;11.35;8.15;;;11.30;99.90;;;;;;5114063;28;20231;-72
2023/04/24 00:37:35;;;;;;;8.50;6.90;;;11.20;99.90;;;;;;5113919;28;20229;-72
2023/04/24 00:40:03;;;;;;;8.73;5.35;;;11.20;99.90;;;;;;5113099;28;20211;-72
2023/04/24 00:42:31;;;;;;;6.03;5.38;;;11.20;99.90;;;;;;5113080;28;20207;-72
2023/04/24 00:44:59;;;;;;;5.43;4.68;;;11.10;99.90;;;;;;5112870;28;21182;-72
2023/04/24 00:47:26;;;;;;;7.15;4.63;;;11.10;99.90;;;;;;5113545;28;20304;-72
2023/04/24 00:49:53;;;;;;;5.85;3.22;;;11.00;99.90;;;;;;5112874;28;20668;-73
2023/04/24 00:52:20;;;;;;;6.13;3.80;;;11.00;99.90;;;;;;5113286;28;20228;-72
2023/04/24 00:54:47;;;;;;;5.35;3.33;;;10.90;99.90;;;;;;5112654;28;20247;-71
2023/04/24 00:57:15;;;;;;;4.95;3.13;;;10.90;99.90;;;;;;5112801;28;20236;-71
2023/04/24 00:59:44;;;;;;;4.57;3.22;;;10.90;99.90;;;;;;5112669;28;20686;-72
2023/04/24 01:02:12;;;;;;;6.57;2.93;;;10.90;99.90;;;;;;5112553;28;20273;-72
2023/04/24 01:04:40;;;;;;;4.47;2.67;;;10.90;99.90;;;;;;5112870;28;20260;-71
2023/04/24 01:07:10;;;;;;;6.53;3.45;;;10.90;99.90;;;;;;5113088;28;20289;-71
2023/04/24 01:09:37;;;;;;;6.78;3.05;;;10.90;99.90;;;;;;5113046;28;20205;-71
2023/04/24 01:12:05;;;;;;;5.05;2.45;;;10.90;99.90;;;;;;5112395;28;20244;-72
2023/04/24 01:14:32;;;;;;;3.67;2.60;;;10.80;99.90;;;;;;5113016;28;20220;-71
2023/04/24 01:17:01;;;;;;;8.25;2.88;;;10.80;99.90;;;;;;5112545;28;20233;-71
2023/04/24 01:19:28;;;;;;;3.50;2.47;;;10.80;99.90;;;;;;5112668;28;20197;-72
2023/04/24 01:21:59;;;;;;;4.78;2.33;;;10.80;99.90;;;;;;5112235;28;20240;-72
2023/04/24 01:24:27;;;;;;;3.72;2.10;;;10.80;99.90;;;;;;5112411;28;20232;-71
2023/04/24 01:26:54;;;;;;;8.20;2.83;;;10.90;99.90;;;;;;5112177;28;20669;-71
2023/04/24 01:29:22;;;;;;;4.68;2.67;;;10.90;99.90;;;;;;5112731;28;20201;-71
2023/04/24 01:31:49;;;;;;;4.35;2.78;;;10.90;99.90;;;;;;5112018;28;20228;-71
2023/04/24 01:34:16;;;;;;;4.88;2.53;;;10.90;99.90;;;;;;5112406;28;20232;-71
2023/04/24 01:36:46;;;;;;;4.93;2.23;;;10.80;99.90;;;;;;5111885;28;20205;-71
2023/04/24 01:39:13;;;;;;;3.20;2.28;;;10.80;99.90;;;;;;5112228;28;20232;-71
2023/04/24 01:41:41;;;;;;;5.28;1.95;;;10.70;99.90;;;;;;5112099;28;20692;-71
2023/04/24 01:44:09;;;;;;;5.18;2.70;;;10.80;99.90;;;;;;5112578;28;20232;-71
2023/04/24 01:46:36;;;;;;;2.28;1.90;;;10.80;99.90;;;;;;5112419;28;20264;-71
2023/04/24 01:49:03;;;;;;;6.18;2.42;;;10.80;99.90;;;;;;5111698;28;20254;-71
2023/04/24 01:51:31;;;;;;;3.90;2.03;;;10.80;99.90;;;;;;5112001;28;20239;-71
2023/04/24 01:53:58;;;;;;;3.92;1.65;;;10.80;99.90;;;;;;5109570;27;20295;-72
2023/04/24 01:56:26;;;;;;;4.77;1.90;;;10.80;99.90;;;;;;5109003;28;20237;-72
2023/04/24 01:58:55;;;;;;;3.75;2.65;;;10.80;99.90;;;;;;5111662;28;20254;-72
2023/04/24 02:01:24;;;;;;;12.40;3.33;;;10.80;99.90;;;;;;5111534;28;20289;-72
2023/04/24 02:03:51;;;;;;;5.90;1.87;;;10.80;99.90;;;;;;5111039;28;20236;-72
2023/04/24 02:06:18;;;;;;;2.53;1.77;;;10.70;99.90;;;;;;5111754;28;20272;-72
2023/04/24 02:08:45;;;;;;;4.40;2.20;;;10.70;99.90;;;;;;5111498;28;20236;-72
2023/04/24 02:11:12;;;;;;;7.05;2.40;;;10.80;99.90;;;;;;5111237;28;20673;-73
2023/04/24 02:13:39;;;;;;;4.28;2.20;;;10.80;99.90;;;;;;5111795;28;20235;-73
2023/04/24 02:16:07;;;;;;;3.07;2.27;;;10.80;99.90;;;;;;5111664;28;20293;-72
2023/04/24 02:18:34;;;;;;;5.63;3.33;;;10.80;99.90;;;;;;5111550;28;20208;-72
2023/04/24 02:21:01;;;;;;;5.22;1.83;;;10.80;99.90;;;;;;5111020;28;20215;-73
2023/04/24 02:23:28;;;;;;;3.17;2.05;;;10.80;99.90;;;;;;5111367;28;20722;-72
2023/04/24 02:25:55;;;;;;;5.90;2.22;;;10.80;99.90;;;;;;5110958;28;20264;-73
2023/04/24 02:28:22;;;;;;;6.73;2.33;;;10.80;99.90;;;;;;5111374;28;20274;-72
2023/04/24 02:30:49;;;;;;;6.10;2.67;;;10.80;99.90;;;;;;5110950;28;20228;-73
2023/04/24 02:33:17;;;;;;;4.97;2.60;;;10.70;99.90;;;;;;5111636;28;20570;-72
2023/04/24 02:35:44;;;;;;;4.07;1.80;;;10.70;99.90;;;;;;5111210;28;20228;-72
2023/04/24 02:38:11;;;;;;;2.08;1.70;;;10.70;99.90;;;;;;5110953;28;20244;-73
2023/04/24 02:40:38;;;;;;;3.00;2.00;;;10.80;99.90;;;;;;5111668;28;20204;-73
2023/04/24 02:43:05;;;;;;;4.73;2.27;;;10.90;99.90;;;;;;5110848;28;20336;-72
2023/04/24 02:45:34;;;;;;;3.92;2.00;;;11.10;99.90;;;;;;5111104;28;20730;-72
2023/04/24 02:48:01;;;;;;;3.78;1.55;;;11.30;99.90;;;;;;5111050;28;20215;-74
2023/04/24 02:50:29;;;;;;;7.38;2.65;;;11.30;99.90;;;;;;5093937;28;20750;-72
2023/04/24 02:52:56;;;;;;;4.55;1.77;;;11.40;99.90;;;;;;5090193;28;20247;-72
2023/04/24 02:55:23;;;;;;;3.17;1.55;;;11.40;99.90;;;;;;5090681;28;20260;-72
2023/04/24 02:57:50;;;;;;;4.93;1.73;;;11.40;99.90;;;;;;5090415;28;20246;-73
2023/04/24 03:00:17;;;;;;;3.55;1.45;;;11.40;99.90;;;;;;5090552;28;20639;-74
2023/04/24 03:02:44;;;;;;;5.22;2.13;;;11.40;99.90;;;;;;5090206;28;20243;-74
2023/04/24 03:05:11;;;;;;;4.80;1.90;;;11.40;99.90;;;;;;5090765;28;20265;-73
2023/04/24 03:07:40;;;;;;;7.07;1.83;;;11.40;99.90;;;;;;5090472;28;20209;-72
2023/04/24 03:10:08;;;;;;;4.65;3.30;;;11.40;99.90;;;;;;5091010;28;20292;-71
2023/04/24 03:12:35;;;;;;;3.55;1.73;;;11.40;99.90;;;;;;5090382;28;20266;-73
2023/04/24 03:15:02;;;;;;;4.80;1.90;;;11.40;99.90;;;;;;5090142;28;20263;-75
2023/04/24 03:17:29;;;;;;;2.58;1.45;;;11.40;99.90;;;;;;5090558;28;20755;-72
2023/04/24 03:19:56;;;;;;;8.45;1.88;;;11.50;99.90;;;;;;5090186;28;20240;-71
2023/04/24 03:22:23;;;;;;;8.15;2.80;;;11.50;99.90;;;;;;5090365;28;20236;-71
2023/04/24 03:24:51;;;;;;;3.45;1.60;;;11.50;99.90;;;;;;5092484;28;20241;-72
2023/04/24 03:27:18;;;;;;;1.92;1.73;;;11.50;99.90;;;;;;5094375;28;20244;-73
2023/04/24 03:29:45;;;;;;;7.03;2.20;;;11.50;99.90;;;;;;5093976;28;20237;-72
2023/04/24 03:32:12;;;;;;;7.55;3.10;;;11.50;99.90;;;;;;5094280;28;20205;-71
2023/04/24 03:34:39;;;;;;;4.38;1.92;;;11.50;99.90;;;;;;5108008;28;20254;-74
2023/04/24 03:37:05;;;;;;;1.75;1.48;;;11.40;99.90;;;;;;5114619;28;20205;-72
2023/04/24 03:39:32;;;;;;;2.08;1.55;;;11.30;99.90;;;;;;5114243;28;20265;-72
2023/04/24 03:42:01;;;;;;;4.85;1.35;;;11.20;99.90;;;;;;5114703;28;20261;-71
2023/04/24 03:44:28;;;;;;;3.83;1.35;;;11.20;99.90;;;;;;5113161;28;20205;-70
2023/04/24 03:46:55;;;;;;;5.97;1.35;;;11.10;99.90;;;;;;5114229;28;20267;-71
2023/04/24 03:49:21;;;;;;;7.32;1.92;;;11.10;99.90;;;;;;5113520;28;20243;-70
2023/04/24 03:51:48;;;;;;;4.05;1.52;;;11.20;99.90;;;;;;5113850;28;20232;-71
2023/04/24 03:54:15;;;;;;;5.72;1.73;;;11.30;99.90;;;;;;5113291;28;20204;-71
2023/04/24 03:56:42;;;;;;;4.97;1.70;;;11.30;99.90;;;;;;5114277;28;20281;-70
2023/04/24 03:59:10;;;;;;;1.83;1.33;;;11.40;99.90;;;;;;5114775;28;20224;-73
2023/04/24 04:01:37;;;;;;;5.20;2.70;;;11.40;99.90;;;;;;5114543;28;20670;-71
2023/04/24 04:04:04;;;;;;;2.92;1.45;;;11.50;99.90;;;;;;5113922;28;20197;-70
2023/04/24 04:06:31;;;;;;;2.92;1.63;;;11.40;99.90;;;;;;5113905;28;20267;-70
2023/04/24 04:08:58;;;;;;;2.53;2.00;;;11.40;99.90;;;;;;5113759;28;20294;-72
2023/04/24 04:11:26;;;;;;;5.22;2.15;;;11.40;99.90;;;;;;5114063;28;20232;-71
2023/04/24 04:13:53;;;;;;;4.85;1.83;;;11.30;99.90;;;;;;5113700;28;20656;-73
2023/04/24 04:16:21;;;;;;;2.88;2.10;;;11.30;99.90;;;;;;5114126;28;20235;-71
2023/04/24 04:18:48;;;;;;;3.13;2.03;;;11.20;99.90;;;;;;5113635;28;20201;-70
2023/04/24 04:21:15;;;;;;;9.20;2.42;;;11.20;99.90;;;;;;5113652;28;20224;-70
2023/04/24 04:23:42;;;;;;;5.50;1.83;;;11.30;99.90;;;;;;5113416;28;20241;-72
2023/04/24 04:26:09;;;;;;;4.63;1.70;;;11.20;99.90;;;;;;5114053;28;20268;-70
2023/04/24 04:28:37;;;;;;;6.20;2.35;;;11.20;99.90;;;;;;5114162;28;20240;-70
2023/04/24 04:31:04;;;;;;;2.78;1.83;;;11.20;99.90;;;;;;5113384;28;20755;-70
2023/04/24 04:33:32;;;;;;;7.15;2.00;;;11.20;99.90;;;;;;5113760;28;20309;-70
2023/04/24 04:35:59;;;;;;;4.97;1.67;;;11.10;99.90;;;;;;5111778;28;20204;-70
2023/04/24 04:38:29;;;;;;;3.92;2.00;;;11.10;99.90;;;;;;5113785;28;20211;-70
2023/04/24 04:40:57;;;;;;;5.55;1.70;;;11.10;99.90;;;;;;5113350;28;20204;-70
2023/04/24 04:43:25;;;;;;;4.85;2.45;;;11.10;99.90;;;;;;5113311;28;20202;-70
2023/04/24 04:45:52;;;;;;;4.15;1.35;;;11.00;99.90;;;;;;5113088;28;20232;-70
2023/04/24 04:48:19;;;;;;;6.10;2.05;;;11.00;99.90;;;;;;5113325;28;20200;-70
2023/04/24 04:50:47;;;;;;;3.30;1.67;;;11.00;99.90;;;;;;5112767;28;20660;-70
2023/04/24 04:53:14;;;;;;;5.22;2.00;;;11.10;99.90;;;;;;5113426;28;20241;-70
2023/04/24 04:55:42;;;;;;;5.18;2.45;;;11.10;99.90;;;;;;5112421;28;20220;-71
2023/04/24 04:58:09;;;;;;;5.85;2.00;;;11.20;99.90;;;;;;5113285;28;20434;-71
2023/04/24 05:00:37;;;;;;;4.75;1.83;;;11.20;99.90;;;;;;5112966;28;20197;-70
2023/04/24 05:03:05;;;;;;;3.92;1.70;;;11.30;99.90;;;;;;5112544;28;20768;-70
2023/04/24 05:05:31;;;;;;;4.17;2.03;;;11.40;99.90;;;;;;5112569;28;20226;-70
2023/04/24 05:08:00;;;;;;;7.53;2.65;;;11.40;99.90;;;;;;5112814;28;20228;-72
2023/04/24 05:10:27;;;;;;;6.60;3.60;;;11.40;99.90;;;;;;5112734;28;20236;-70
2023/04/24 05:12:53;;;;;;;5.30;1.73;;;11.50;99.90;;;;;;5112430;28;20236;-70
2023/04/24 05:15:20;;;;;;;7.43;2.03;;;11.50;99.90;;;;;;5112825;28;20606;-71
2023/04/24 05:17:47;;;;;;;5.13;2.58;;;11.50;99.90;;;;;;5112129;28;20297;-71
2023/04/24 05:20:14;;;;;;;4.50;2.83;;;11.50;99.90;;;;;;5111838;28;20247;-71
2023/04/24 05:22:41;;;;;;;4.30;1.92;;;11.50;99.90;;;;;;5110291;28;20196;-71
2023/04/24 05:25:10;;;;;;;7.07;1.77;;;11.60;99.90;;;;;;5112514;28;20254;-71
2023/04/24 05:27:37;;;;;;;9.68;2.95;;;11.60;99.90;;;;;;5112539;28;20260;-71
2023/04/24 05:30:05;;;;;;;7.75;2.55;;;11.70;99.90;;;;;;5112342;28;20192;-73
2023/04/24 05:32:32;;;;;;;7.70;2.78;;;11.80;99.90;;;;;;5112156;28;20208;-76
2023/04/24 05:34:58;;;;;;;5.97;2.27;;;11.80;99.90;;;;;;5111951;27;20278;-71
2023/04/24 05:37:25;;;;;;;6.70;1.88;;;11.80;99.90;;;;;;5112680;28;20240;-77
2023/04/24 05:39:52;;;;;;;4.20;1.90;;;11.90;99.90;;;;;;5112119;28;20236;-76
2023/04/24 05:42:21;;;;;;;6.05;2.20;;;11.90;99.90;;;;;;5111798;28;20757;-75
2023/04/24 05:44:48;;;;;;;2.88;1.77;;;11.90;99.90;;;;;;5110112;28;20680;-77
2023/04/24 05:47:15;;;;;;;3.15;1.83;;;11.90;99.90;;;;;;5111819;28;20232;-76
2023/04/24 05:49:42;;;;;;;11.35;2.75;;;11.90;99.90;;;;;;5111375;28;20205;-73
2023/04/24 05:52:09;;;;;;;7.63;3.03;;;11.90;99.90;;;;;;5112597;28;20232;-78
2023/04/24 05:54:36;;;;;;;5.85;2.08;;;11.90;99.90;;;;;;5109565;28;20593;-75
2023/04/24 05:57:07;;;;;;;10.43;3.45;;;12.00;99.90;;;;;;5111690;28;20229;-72
2023/04/24 05:59:37;;;;;;;3.05;1.95;;;12.20;99.90;;;;;;5111800;28;20240;-73
2023/04/24 06:02:04;;;;;;;10.52;2.47;;;12.30;99.90;;;;;;5111154;28;20243;-72
2023/04/24 06:04:31;;;;;;;3.33;1.85;;;12.30;99.90;;;;;;5111865;28;20233;-72
2023/04/24 06:06:58;;;;;;;4.20;1.60;;;12.40;99.90;;;;;;5111399;28;20707;-71
2023/04/24 06:09:25;;;;;;;9.57;2.65;;;12.40;99.90;;;;;;5111804;28;20255;-73
2023/04/24 06:11:53;;;;;;;4.07;2.90;;;12.40;99.90;;;;;;5109801;27;20269;-73
2023/04/24 06:14:20;;;;;;;3.65;2.08;;;12.30;99.90;;;;;;5111673;28;20227;-72
2023/04/24 06:16:48;;;;;;;6.38;2.28;;;12.30;99.90;;;;;;5110968;28;20638;-73
2023/04/24 06:19:15;;;;;;;5.32;2.50;;;12.40;99.90;;;;;;5111759;28;20197;-72
2023/04/24 06:21:42;;;;;;;4.22;2.55;;;12.60;99.90;;;;;;5111290;28;20631;-79
2023/04/24 06:24:09;;;;;;;5.90;2.30;;;12.80;99.90;;;;;;5111940;28;20243;-69
2023/04/24 06:26:36;;;;;;;4.70;1.92;;;12.80;99.90;;;;;;5111586;28;20591;-73
2023/04/24 06:29:03;;;;;;;8.60;2.55;;;12.70;99.90;;;;;;5111435;28;20240;-73
2023/04/24 06:31:30;;;;;;;4.70;1.95;;;12.70;99.90;;;;;;5110362;28;20247;-76
2023/04/24 06:33:58;;;;;;;4.72;2.35;;;12.70;99.90;;;;;;5108879;28;20564;-72
2023/04/24 06:36:26;;;;;;;4.03;2.20;;;12.70;99.90;;;;;;5110979;28;20673;-73
2023/04/24 06:38:53;;;;;;;9.63;2.33;;;12.70;99.90;;;;;;5110383;28;20197;-72
2023/04/24 06:41:19;;;;;;;10.88;2.50;;;12.70;99.90;;;;;;5115362;28;20272;-72
2023/04/24 06:43:46;;;;;;;4.32;1.92;;;12.90;99.90;;;;;;5118695;27;20236;-72
2023/04/24 06:46:13;;;;;;;4.72;2.55;;;12.90;99.90;;;;;;5111002;28;20336;-72
2023/04/24 06:48:40;;;;;;;8.90;2.90;;;12.90;99.90;;;;;;5110217;28;20588;-75
2023/04/24 06:51:09;;;;;;;6.68;3.00;;;12.90;99.90;;;;;;5110884;28;20229;-73
2023/04/24 06:53:36;;;;;;;5.00;2.95;;;12.90;99.90;;;;;;5110996;28;20247;-73
2023/04/24 06:56:03;;;;;;;6.72;2.15;;;12.90;99.90;;;;;;5109833;28;20637;-72
2023/04/24 06:58:31;;;;;;;7.63;2.75;;;12.90;99.90;;;;;;5111244;28;20308;-74
2023/04/24 07:00:58;;;;;;;8.27;2.45;;;12.90;99.90;;;;;;5122719;27;20251;-73
2023/04/24 07:03:25;;;;;;;6.05;2.72;;;12.90;99.90;;;;;;5115235;28;20236;-76
2023/04/24 07:05:53;;;;;;;9.82;2.70;;;13.00;99.90;;;;;;5114772;28;20204;-76
2023/04/24 07:08:21;;;;;;;2.53;2.10;;;13.10;99.90;;;;;;5115061;27;20263;-75
2023/04/24 07:10:49;;;;;;;2.83;1.90;;;13.30;99.90;;;;;;5114446;28;20700;-72
2023/04/24 07:13:16;;;;;;;3.88;2.55;;;13.40;99.90;;;;;;5115176;28;20208;-76
2023/04/24 07:15:43;;;;;;;6.10;2.53;;;13.30;99.90;;;;;;5114112;28;20205;-75
2023/04/24 07:18:10;;;;;;;5.68;2.97;;;13.10;99.90;;;;;;5114787;28;20251;-71
2023/04/24 07:20:37;;;;;;;9.85;3.42;;;13.20;99.90;;;;;;5115187;28;20239;-72
2023/04/24 07:23:04;;;;;;;6.70;2.60;;;13.20;99.90;;;;;;5114460;28;20699;-73
2023/04/24 07:25:32;;;;;;;5.90;2.30;;;13.10;99.90;;;;;;5114922;28;20228;-72
2023/04/24 07:28:00;;;;;;;4.78;2.40;;;13.00;99.90;;;;;;5113238;28;20809;-74
2023/04/24 07:30:28;;;;;;;6.93;2.28;;;12.90;99.90;;;;;;5114524;27;20227;-73
2023/04/24 07:32:56;;;;;;;2.85;2.03;;;12.80;99.90;;;;;;5123783;27;20200;-76
2023/04/24 07:35:25;;;;;;;2.47;1.27;;;12.80;99.90;;;;;;5114876;28;20212;-73
2023/04/24 07:37:52;;;;;;;4.93;1.70;;;12.70;99.90;;;;;;5120147;27;20299;-78
2023/04/24 07:40:21;;;;;;;1.80;1.08;;;13.00;99.90;;;;;;5135418;27;20200;-77
2023/04/24 07:42:49;;;;;;;2.78;1.80;;;13.00;99.90;;;;;;5134872;27;20205;-77
2023/04/24 07:45:17;;;;;;;1.83;0.98;;;12.90;99.90;;;;;;5122020;27;20577;-74
2023/04/24 07:47:45;;;;;;;1.27;1.13;;;12.90;99.90;;;;;;5112039;28;20232;-71
2023/04/24 07:50:13;;;;;;;4.25;1.35;;;12.90;99.90;;;;;;5113459;28;20620;-72
2023/04/24 07:52:40;;;;;;;3.45;1.05;;;13.00;99.90;;;;;;5113729;28;20204;-71
2023/04/24 07:55:08;;;;;;;2.60;1.08;;;13.40;99.90;;;;;;5114338;28;20205;-72
2023/04/24 07:57:35;;;;;;;2.67;1.13;;;13.70;99.90;;;;;;5114045;28;20200;-75
2023/04/24 08:00:05;;;;;;;4.40;0.90;;;13.80;99.90;;;;;;5113047;27;20231;-76
2023/04/24 08:02:33;;;;;;;3.03;1.25;;;14.00;99.90;;;;;;5113069;28;20262;-75
2023/04/24 08:05:00;;;;;;;3.97;1.63;;;14.20;99.90;;;;;;5112868;27;20247;-75
2023/04/24 08:07:27;;;;;;;4.18;1.73;;;14.00;99.90;;;;;;5113754;28;20240;-76
2023/04/24 08:09:54;;;;;;;4.93;2.15;;;13.90;99.90;;;;;;5113169;28;20200;-75
2023/04/24 08:12:21;;;;;;;5.20;1.63;;;14.30;99.90;;;;;;5113530;28;20211;-74
2023/04/24 08:14:48;;;;;;;4.43;1.10;;;14.00;99.90;;;;;;5113124;28;20207;-75
2023/04/24 08:17:17;;;;;;;4.90;0.85;;;14.20;99.90;;;;;;5113692;28;20209;-75
2023/04/24 08:19:48;;;;;;;7.63;2.05;;;14.10;99.90;;;;;;5113282;28;20211;-75
2023/04/24 08:22:15;;;;;;;4.20;1.33;;;13.90;99.90;;;;;;5113808;28;20265;-79
2023/04/24 08:24:43;;;;;;;2.60;1.13;;;13.80;99.90;;;;;;5113152;28;20299;-74
2023/04/24 08:27:10;;;;;;;2.05;1.10;;;13.90;99.90;;;;;;5112203;28;20540;-76
2023/04/24 08:29:37;;;;;;;4.90;1.17;;;14.20;99.90;;;;;;5112866;28;20299;-74
2023/04/24 08:32:05;;;;;;;2.25;1.20;;;14.30;99.90;;;;;;5113053;28;20200;-70
2023/04/24 08:34:33;;;;;;;1.30;0.95;;;14.30;99.90;;;;;;5112893;28;20597;-75
2023/04/24 08:37:01;;;;;;;3.13;0.98;;;14.30;99.90;;;;;;5113155;28;20567;-76
2023/04/24 08:39:28;;;;;;;2.95;0.98;;;14.40;99.90;;;;;;5111497;28;20207;-72
2023/04/24 08:41:56;;;;;;;3.78;1.73;;;14.40;99.90;;;;;;5111874;27;20587;-76
2023/04/24 08:44:23;;;;;;;4.60;1.80;;;14.40;99.90;;;;;;5112944;28;20207;-78
2023/04/24 08:46:51;;;;;;;2.72;1.58;;;14.50;99.90;;;;;;5112920;28;20220;-73
2023/04/24 08:49:19;;;;;;;1.20;0.90;;;14.80;99.90;;;;;;5113388;28;20197;-73
2023/04/24 08:51:49;;;;;;;1.88;1.20;;;14.90;99.90;;;;;;5112863;28;20205;-72
2023/04/24 08:54:17;;;;;;;1.45;0.85;;;15.10;99.90;;;;;;5112161;28;20680;-72
2023/04/24 08:56:46;;;;;;;2.30;1.00;;;14.90;99.90;;;;;;5111528;28;20205;-71
2023/04/24 08:59:13;;;;;;;2.15;0.82;;;14.80;99.90;;;;;;5112013;28;20696;-73
2023/04/24 09:01:41;;;;;;;2.67;1.25;;;14.70;99.90;;;;;;5111817;28;20664;-73
2023/04/24 09:04:11;;;;;;;2.47;1.00;;;14.60;99.90;;;;;;5113335;28;20207;-71
2023/04/24 09:06:39;;;;;;;2.75;1.00;;;15.10;99.90;;;;;;5127171;27;20207;-71
2023/04/24 09:09:09;;;;;;;3.78;1.10;;;15.50;99.90;;;;;;5133564;27;20667;-71
2023/04/24 09:11:38;;;;;;;5.85;1.77;;;15.40;99.90;;;;;;5133200;27;20299;-71
2023/04/24 09:14:05;;;;;;;10.32;1.63;;;15.30;99.90;;;;;;5132665;27;20204;-72
2023/04/24 09:16:33;;;;;;;3.03;1.00;;;15.00;99.90;;;;;;5133295;27;20207;-70
2023/04/24 09:19:00;;;;;;;1.02;0.75;;;15.10;99.90;;;;;;5132602;27;20236;-71
2023/04/24 09:21:33;;;;;;;2.95;1.23;;;15.10;99.90;;;;;;5132047;27;20210;-71
2023/04/24 09:24:02;;;;;;;5.35;1.45;;;14.90;99.90;;;;;;5132473;27;20200;-74
2023/04/24 09:26:32;;;;;;;3.33;1.00;;;14.80;99.90;;;;;;5132969;27;20200;-72
2023/04/24 09:29:00;;;;;;;4.13;1.55;;;14.90;99.90;;;;;;5132564;27;20235;-72
2023/04/24 09:31:29;;;;;;;3.80;1.17;;;15.00;99.90;;;;;;5132725;27;20206;-71
2023/04/24 09:33:58;;;;;;;8.68;1.85;;;14.90;99.90;;;;;;5119562;27;20554;-72
2023/04/24 09:36:30;;;;;;;2.78;1.30;;;15.00;99.90;;;;;;5112224;28;20211;-72
2023/04/24 09:38:59;;;;;;;3.03;1.42;;;15.30;99.90;;;;;;5111718;28;20291;-71
2023/04/24 09:41:27;;;;;;;6.95;1.40;;;15.30;99.90;;;;;;5112089;28;20294;-71
2023/04/24 09:43:57;;;;;;;2.33;1.00;;;15.10;99.90;;;;;;5111786;28;20204;-71
2023/04/24 09:46:32;;;;;;;3.13;1.65;;;15.20;99.90;;;;;;5112106;28;20203;-71
2023/04/24 09:49:09;;;;;;;2.10;1.42;;;15.50;99.90;;;;;;5111724;28;20220;-72
2023/04/24 09:51:38;;;;;;;2.05;1.00;;;15.80;99.90;;;;;;5112206;28;20211;-71
2023/04/24 09:54:14;;;;;;;3.83;0.95;;;16.10;99.90;;;;;;5111770;28;20207;-71
2023/04/24 09:56:45;;;;;;;1.50;0.82;;;16.90;99.90;;;;;;5111618;28;20207;-72
2023/04/24 09:59:14;;;;;;;4.03;0.98;;;16.80;99.90;;;;;;5111716;28;20570;-72
2023/04/24 10:01:44;;;;;;;3.05;1.27;;;16.40;99.90;;;;;;5111519;28;20213;-71
2023/04/24 10:04:19;;;;;;;2.22;0.88;;;15.90;99.90;;;;;;5111916;28;20262;-71
2023/04/24 10:06:47;;;;;;;4.45;2.55;;;15.50;99.90;;;;;;5110788;28;20205;-70
2023/04/24 10:09:14;;;;;;;2.08;1.10;;;15.60;99.90;;;;;;5111031;28;20247;-71
2023/04/24 10:11:44;;;;;;;3.53;1.02;;;15.90;99.90;;;;;;5111310;28;20676;-70
2023/04/24 10:14:14;;;;;;;3.50;1.33;;;15.90;99.90;;;;;;5111770;28;20204;-71
2023/04/24 10:16:43;;;;;;;5.25;1.00;;;16.10;99.90;;;;;;5109767;28;20676;-70
2023/04/24 10:19:12;;;;;;;1.88;0.90;;;16.00;99.90;;;;;;5111195;28;20209;-71
2023/04/24 10:21:46;;;;;;;2.72;2.00;;;15.80;99.90;;;;;;5111654;28;20201;-71
2023/04/24 10:24:14;;;;;;;1.17;0.77;;;16.00;99.90;;;;;;5111164;28;20678;-71
2023/04/24 10:26:42;;;;;;;1.83;1.40;;;16.20;99.90;;;;;;5110824;28;20200;-70
2023/04/24 10:29:12;;;;;;;5.10;1.50;;;17.50;99.90;;;;;;5111449;28;20243;-71
2023/04/24 10:31:41;;;;;;;2.45;1.20;;;17.70;99.90;;;;;;5111284;28;20200;-70
2023/04/24 10:34:10;;;;;;;2.30;1.30;;;17.50;99.90;;;;;;5109830;28;20200;-72
2023/04/24 10:36:41;;;;;;;4.15;1.95;;;17.80;99.90;;;;;;5111496;28;20209;-70
2023/04/24 10:39:13;;;;;;;2.33;0.93;;;17.70;99.90;;;;;;5111258;28;20596;-70
2023/04/24 10:41:40;;;;;;;2.67;1.20;;;16.90;99.90;;;;;;5111152;28;20188;-70
2023/04/24 10:44:08;;;;;;;5.45;2.70;;;16.40;99.90;;;;;;5109975;28;20209;-73
2023/04/24 10:46:35;;;;;;;3.25;1.23;;;16.30;99.90;;;;;;5110392;28;20207;-73
2023/04/24 10:49:10;;;;;;;2.88;1.33;;;16.60;99.90;;;;;;5110263;28;20746;-72
2023/04/24 10:51:48;;;;;;;3.90;1.40;;;17.30;99.90;;;;;;5111047;28;20278;-72
2023/04/24 10:54:29;;;;;;;4.20;1.30;;;17.20;99.90;;;;;;5110947;28;20204;-77
2023/04/24 10:57:28;;;;;;;2.88;1.65;;;17.10;99.90;;;;;;5110458;28;20205;-74
2023/04/24 11:00:17;;;;;;;4.50;3.00;;;16.80;99.90;;;;;;5110823;28;20201;-74
2023/04/24 11:02:50;;;;;;;5.07;2.28;;;16.80;99.90;;;;;;5110732;28;20284;-72
2023/04/24 11:05:19;;;;;;;7.35;4.07;;;16.70;99.90;;;;;;5110510;28;20686;-73
2023/04/24 11:08:12;;;;;;;10.05;6.90;;;16.50;99.90;;;;;;5109862;28;20243;-75
2023/04/24 11:10:41;;;;;;;10.18;7.18;;;16.50;99.90;;;;;;5111291;28;20224;-73
2023/04/24 11:13:09;;;;;;;6.13;4.15;;;16.30;99.90;;;;;;5111689;28;20215;-73
2023/04/24 11:15:36;;;;;;;10.02;7.78;;;16.20;99.90;;;;;;5092457;28;20205;-72
2023/04/24 11:18:03;;;;;;;7.80;5.15;;;16.20;99.90;;;;;;5110111;28;20205;-72
2023/04/24 11:20:32;;;;;;;10.13;4.95;;;16.30;99.90;;;;;;5109696;28;20723;-75
2023/04/24 11:23:06;;;;;;;7.40;2.30;;;16.50;99.90;;;;;;5109918;28;20232;-74
2023/04/24 11:25:33;;;;;;;6.30;3.10;;;16.50;99.90;;;;;;5110903;28;20287;-76
2023/04/24 11:28:07;;;;;;;3.25;1.33;;;16.50;99.90;;;;;;5109169;28;20221;-76
2023/04/24 11:30:35;;;;;;;4.28;1.30;;;16.50;99.90;;;;;;5099980;28;20288;-73
2023/04/24 11:33:06;;;;;;;2.35;0.82;;;16.20;99.90;;;;;;5110249;28;20647;-73
2023/04/24 11:35:41;;;;;;;4.05;1.63;;;15.90;99.90;;;;;;5109995;28;20207;-73
2023/04/24 11:38:09;;;;;;;2.25;0.90;;;15.80;99.90;;;;;;5110590;28;20239;-73
2023/04/24 11:40:37;;;;;;;2.83;0.98;;;16.20;99.90;;;;;;5110975;28;20639;-74
2023/04/24 11:43:06;;;;;;;1.95;1.20;;;16.70;99.90;;;;;;5110979;28;20335;-72
2023/04/24 11:45:33;;;;;;;3.08;2.00;;;17.00;99.90;;;;;;5112861;28;20197;-73
2023/04/24 11:48:00;;;;;;;2.05;1.10;;;17.60;99.90;;;;;;5113919;28;20228;-72
2023/04/24 11:50:29;;;;;;;11.07;2.33;;;17.70;99.90;;;;;;5113895;28;20211;-72
2023/04/24 11:53:00;;;;;;;2.58;1.60;;;17.70;99.90;;;;;;5113941;28;20214;-72
2023/04/24 11:55:29;;;;;;;4.70;2.35;;;17.90;99.90;;;;;;5113297;28;20208;-72
2023/04/24 11:57:58;;;;;;;1.77;1.10;;;18.00;99.90;;;;;;5113867;28;20207;-73
2023/04/24 12:00:26;;;;;;;5.25;1.60;;;18.20;99.90;;;;;;5112497;28;20209;-72
2023/04/24 12:03:06;;;;;;;3.55;1.65;;;18.20;99.90;;;;;;5113033;28;20206;-71
2023/04/24 12:05:34;;;;;;;3.17;1.40;;;17.90;99.90;;;;;;5115393;27;20193;-72
2023/04/24 12:08:02;;;;;;;1.98;1.13;;;18.20;99.90;;;;;;5113564;28;20650;-73
2023/04/24 12:10:32;;;;;;;2.88;1.00;;;18.10;99.90;;;;;;5113304;28;20211;-71
2023/04/24 12:13:00;;;;;;;7.05;1.13;;;18.30;99.90;;;;;;5113294;28;20212;-73
2023/04/24 12:15:28;;;;;;;5.07;1.75;;;18.50;99.90;;;;;;5122082;27;20200;-72
2023/04/24 12:17:57;;;;;;;1.77;1.05;;;17.80;99.90;;;;;;5123057;27;20209;-72
2023/04/24 12:20:30;;;;;;;5.82;1.70;;;17.70;99.90;;;;;;5113487;28;20691;-69
2023/04/24 12:22:59;;;;;;;1.65;1.00;;;17.50;99.90;;;;;;5112340;28;20213;-74
2023/04/24 12:25:28;;;;;;;2.25;1.00;;;17.40;99.90;;;;;;5111792;28;20682;-72
2023/04/24 12:28:10;;;;;;;3.22;1.10;;;17.20;99.90;;;;;;5111914;28;20288;-72
2023/04/24 12:30:44;;;;;;;3.30;1.13;;;17.40;99.90;;;;;;5113699;28;20201;-73
2023/04/24 12:33:11;;;;;;;6.88;2.15;;;17.60;99.90;;;;;;5113269;28;20292;-72
2023/04/24 12:35:41;;;;;;;2.55;1.00;;;17.70;99.90;;;;;;5113867;28;20200;-73
2023/04/24 12:38:10;;;;;;;3.97;1.38;;;18.30;99.90;;;;;;5113879;28;20204;-73
2023/04/24 12:40:38;;;;;;;4.85;1.58;;;17.90;99.90;;;;;;5113430;28;20735;-72
2023/04/24 12:43:14;;;;;;;1.65;1.05;;;18.10;99.90;;;;;;5125745;27;20200;-72
2023/04/24 12:45:42;;;;;;;2.70;0.60;;;18.40;99.90;;;;;;5133134;27;20207;-72
2023/04/24 12:48:09;;;;;;;4.25;1.20;;;18.30;99.90;;;;;;5133691;27;20839;-73
2023/04/24 12:50:36;;;;;;;2.75;0.77;;;18.00;99.90;;;;;;5134041;27;20204;-73